Time;durP1;ratioP1;P1;durP2;ratioP2;P2;SDS_P1;SDS_P2;PMS_P1;PMS_P2;Temp;Humidity;BMP_temperature;BMP_pressure;BME280_temperature;BME280_humidity;BME280_pressure;Samples;Min_cycle;Max_cycle;Signal;HPM_P1;HPM_P2
2023/12/02 00:01:12;;;;;;;28.03;14.73;;;;;;;-1.02;83.87;100946.88;5068852;28;20150;-58
2023/12/02 00:03:37;;;;;;;24.37;13.57;;;;;;;-1.05;84.06;100944.28;5085520;28;20032;-58
2023/12/02 00:06:03;;;;;;;25.50;12.97;;;;;;;-1.03;85.31;100952.09;5089763;28;20107;-58
2023/12/02 00:08:29;;;;;;;31.63;15.37;;;;;;;-1.07;84.05;100947.81;5091256;28;20404;-58
2023/12/02 00:10:54;;;;;;;22.70;12.73;;;;;;;-1.12;85.13;100941.78;5090676;28;20121;-58
2023/12/02 00:13:19;;;;;;;23.43;13.70;;;;;;;-1.10;84.57;100938.28;5090198;28;20165;-58
2023/12/02 00:15:45;;;;;;;24.37;13.27;;;;;;;-1.12;84.21;100944.38;5093070;28;20490;-58
2023/12/02 00:18:10;;;;;;;23.30;14.30;;;;;;;-1.11;85.11;100939.16;5094395;28;20023;-58
2023/12/02 00:20:38;;;;;;;24.43;14.77;;;;;;;-1.10;84.62;100942.63;5093404;28;20039;-58
2023/12/02 00:23:06;;;;;;;23.37;13.50;;;;;;;-1.12;84.73;100931.34;5094434;28;20024;-58
2023/12/02 00:25:31;;;;;;;25.43;13.23;;;;;;;-1.22;84.48;100921.03;5093258;28;20114;-58
2023/12/02 00:27:56;;;;;;;25.60;13.70;;;;;;;-1.17;85.17;100940.09;5094290;28;20099;-58
2023/12/02 00:30:22;;;;;;;25.83;13.03;;;;;;;-1.13;85.74;100942.69;5092656;28;20068;-57
2023/12/02 00:32:47;;;;;;;26.97;14.83;;;;;;;-1.09;84.90;100944.34;5094476;28;20105;-58
2023/12/02 00:35:13;;;;;;;23.40;12.70;;;;;;;-1.12;84.89;100942.63;5093869;28;20104;-58
2023/12/02 00:37:38;;;;;;;26.73;14.97;;;;;;;-1.18;85.08;100950.56;5092871;28;20493;-58
2023/12/02 00:40:07;;;;;;;22.97;13.43;;;;;;;-1.21;85.04;100951.44;5093723;28;20476;-58
2023/12/02 00:42:32;;;;;;;22.70;13.93;;;;;;;-1.21;85.57;100958.41;5093503;28;20028;-58
2023/12/02 00:44:57;;;;;;;24.80;13.43;;;;;;;-1.25;84.82;100954.13;5093659;28;20023;-58
2023/12/02 00:47:23;;;;;;;19.73;12.20;;;;;;;-1.26;85.04;100955.88;5085527;28;20439;-58
2023/12/02 00:49:48;;;;;;;27.73;13.83;;;;;;;-1.24;84.80;100955.84;5086112;28;20031;-58
2023/12/02 00:52:14;;;;;;;21.53;13.23;;;;;;;-1.22;85.11;100952.34;5092732;28;20022;-58
2023/12/02 00:54:39;;;;;;;19.20;12.47;;;;;;;-1.23;84.98;100955.00;5094098;28;20399;-58
2023/12/02 00:57:05;;;;;;;24.60;13.40;;;;;;;-1.21;84.61;100963.63;5092554;28;20373;-58
2023/12/02 00:59:30;;;;;;;22.47;13.33;;;;;;;-1.18;84.84;100958.38;5093633;28;20028;-58
2023/12/02 01:01:55;;;;;;;21.60;12.73;;;;;;;-1.17;84.12;100960.97;5096401;28;20456;-58
2023/12/02 01:04:21;;;;;;;26.53;13.13;;;;;;;-1.19;84.39;100965.34;5113416;28;20023;-58
2023/12/02 01:06:46;;;;;;;25.17;12.93;;;;;;;-1.18;84.18;100953.16;5095349;28;20034;-58
2023/12/02 01:09:12;;;;;;;21.60;13.57;;;;;;;-1.15;84.15;100951.41;5113785;28;20031;-58
2023/12/02 01:11:37;;;;;;;25.67;13.33;;;;;;;-1.15;84.29;100946.19;5095207;28;20102;-58
2023/12/02 01:14:02;;;;;;;23.23;13.40;;;;;;;-1.15;84.09;100943.56;5109059;28;20111;-58
2023/12/02 01:16:28;;;;;;;26.17;14.17;;;;;;;-1.15;84.33;100937.47;5097267;28;20399;-58
2023/12/02 01:18:53;;;;;;;25.47;13.70;;;;;;;-1.12;83.09;100954.81;5078916;28;20019;-58
2023/12/02 01:21:19;;;;;;;23.43;13.00;;;;;;;-1.16;83.58;100948.78;5095506;28;20016;-58
2023/12/02 01:23:44;;;;;;;23.80;13.30;;;;;;;-1.22;83.58;100947.13;5096477;28;20099;-58
2023/12/02 01:26:10;;;;;;;25.07;13.33;;;;;;;-1.21;83.58;100934.94;5112702;28;20116;-58
2023/12/02 01:28:35;;;;;;;22.70;13.23;;;;;;;-1.21;83.32;100941.00;5113521;28;20023;-58
2023/12/02 01:31:01;;;;;;;21.27;12.53;;;;;;;-1.19;83.48;100933.19;5094361;28;20034;-59
2023/12/02 01:33:26;;;;;;;26.53;14.83;;;;;;;-1.25;83.08;100933.25;5096177;28;20020;-57
2023/12/02 01:35:52;;;;;;;25.50;13.27;;;;;;;-1.20;82.66;100947.97;5094906;28;20023;-58
2023/12/02 01:38:17;;;;;;;23.07;13.47;;;;;;;-1.24;83.00;100940.19;5113106;28;20096;-58
2023/12/02 01:40:43;;;;;;;24.50;13.10;;;;;;;-1.20;83.78;100955.81;5094826;28;20015;-58
2023/12/02 01:43:20;;;;;;;28.93;14.40;;;;;;;-1.21;83.68;100948.84;5094869;28;20085;-58
2023/12/02 01:45:45;;;;;;;22.83;13.03;;;;;;;-1.18;83.60;100961.88;5094119;28;20043;-57
2023/12/02 01:48:11;;;;;;;26.87;14.07;;;;;;;-1.13;83.52;100972.25;5113094;28;20479;-58
2023/12/02 01:50:37;;;;;;;25.27;13.47;;;;;;;-1.13;83.78;100974.00;5094991;28;20459;-58
2023/12/02 01:53:02;;;;;;;21.67;13.30;;;;;;;-1.09;84.54;100973.06;5094680;28;20028;-58
2023/12/02 01:55:27;;;;;;;25.13;14.33;;;;;;;-1.09;84.03;100973.91;5094910;28;20031;-58
2023/12/02 01:57:53;;;;;;;23.67;13.53;;;;;;;-1.09;84.75;100981.75;5101343;28;20031;-58
2023/12/02 02:00:18;;;;;;;23.90;13.40;;;;;;;-1.10;84.12;100966.97;5093618;28;20411;-58
2023/12/02 02:02:44;;;;;;;28.53;14.33;;;;;;;-1.07;84.19;100971.28;5112716;28;20074;-58
2023/12/02 02:05:09;;;;;;;26.07;14.50;;;;;;;-1.07;84.39;100973.91;5112474;28;20034;-58
2023/12/02 02:07:34;;;;;;;23.47;12.83;;;;;;;-1.17;84.70;100957.53;5098564;28;20020;-58
2023/12/02 02:10:00;;;;;;;23.03;14.13;;;;;;;-1.13;84.75;100974.84;5112002;28;20391;-58
2023/12/02 02:12:26;;;;;;;23.33;13.47;;;;;;;-1.13;84.23;100974.84;5094650;28;20039;-58
2023/12/02 02:14:51;;;;;;;26.83;14.17;;;;;;;-1.13;85.08;100976.59;5111806;28;20034;-58
2023/12/02 02:17:17;;;;;;;23.43;13.10;;;;;;;-1.13;84.20;100979.22;5102784;28;20026;-58
2023/12/02 02:19:42;;;;;;;30.47;14.80;;;;;;;-1.17;84.34;100971.41;5094336;28;20019;-58
2023/12/02 02:22:08;;;;;;;25.00;14.27;;;;;;;-1.21;84.66;100966.25;5112999;28;20478;-58
2023/12/02 02:24:33;;;;;;;24.30;12.93;;;;;;;-1.21;85.05;100971.47;5112436;28;20031;-58
2023/12/02 02:26:59;;;;;;;26.07;15.50;;;;;;;-1.29;84.87;100958.53;5093686;28;20072;-58
2023/12/02 02:29:25;;;;;;;24.60;13.60;;;;;;;-1.23;85.00;100974.13;5111342;28;20023;-58
2023/12/02 02:31:50;;;;;;;23.33;13.97;;;;;;;-1.35;84.85;100952.50;5112566;28;20030;-58
2023/12/02 02:34:15;;;;;;;26.90;14.37;;;;;;;-1.21;84.76;100974.06;5093764;28;20059;-58
2023/12/02 02:36:41;;;;;;;27.33;14.70;;;;;;;-1.21;85.26;100974.94;5111653;28;20027;-58
2023/12/02 02:39:10;;;;;;;23.57;13.23;;;;;;;-1.23;85.29;100979.34;5093755;28;20083;-58
2023/12/02 02:41:36;;;;;;;27.23;13.47;;;;;;;-1.21;85.10;100982.75;5112453;28;20036;-58
2023/12/02 02:44:01;;;;;;;25.37;14.30;;;;;;;-1.25;84.85;100983.69;5111871;28;20363;-58
2023/12/02 02:46:26;;;;;;;26.67;13.63;;;;;;;-1.25;84.96;100990.66;5093397;28;20467;-58
2023/12/02 02:48:52;;;;;;;25.50;14.93;;;;;;;-1.26;85.22;100992.41;5111996;28;20137;-58
2023/12/02 02:51:18;;;;;;;30.83;15.07;;;;;;;-1.26;85.25;100987.19;5076640;28;20349;-58
2023/12/02 02:53:43;;;;;;;24.40;13.50;;;;;;;-1.25;85.20;100995.88;5111945;28;20031;-58
2023/12/02 02:56:09;;;;;;;24.97;14.83;;;;;;;-1.22;85.91;100995.84;5093496;28;20027;-58
2023/12/02 02:58:36;;;;;;;26.80;13.60;;;;;;;-1.22;85.49;100999.31;5111734;28;20523;-58
2023/12/02 03:01:02;;;;;;;26.13;14.43;;;;;;;-1.21;86.41;100995.81;5110975;28;20051;-58
2023/12/02 03:03:28;;;;;;;26.33;15.33;;;;;;;-1.20;86.71;101000.16;5093814;28;20040;-58
2023/12/02 03:05:55;;;;;;;24.10;13.97;;;;;;;-1.21;86.03;101008.84;5111827;28;20031;-58
2023/12/02 03:08:20;;;;;;;24.90;13.60;;;;;;;-1.20;86.50;101000.16;5110446;28;20395;-58
2023/12/02 03:10:49;;;;;;;27.73;14.37;;;;;;;-1.17;86.37;101002.72;5107937;28;20020;-58
2023/12/02 03:13:14;;;;;;;22.47;13.10;;;;;;;-1.11;86.20;101006.16;5082597;28;20387;-58
2023/12/02 03:15:40;;;;;;;22.93;13.30;;;;;;;-1.10;85.75;100998.28;5093308;28;20019;-58
2023/12/02 03:18:05;;;;;;;23.10;12.87;;;;;;;-1.12;86.40;101005.28;5092957;28;20026;-58
2023/12/02 03:20:31;;;;;;;31.73;14.23;;;;;;;-1.16;86.18;101001.84;5093434;28;20357;-58
2023/12/02 03:22:58;;;;;;;23.37;13.60;;;;;;;-1.16;85.93;101003.59;5076573;28;20487;-58
2023/12/02 03:25:25;;;;;;;22.70;14.03;;;;;;;-1.16;86.20;100993.16;5093712;28;20020;-58
2023/12/02 03:27:51;;;;;;;24.97;12.57;;;;;;;-1.18;86.29;101008.84;5111817;28;20080;-58
2023/12/02 03:30:16;;;;;;;25.17;12.97;;;;;;;-1.20;85.74;100994.09;5099617;28;20118;-58
2023/12/02 03:32:43;;;;;;;25.87;13.00;;;;;;;-1.23;85.85;101005.44;5111937;28;20372;-58
2023/12/02 03:35:08;;;;;;;27.20;14.30;;;;;;;-1.24;85.95;101000.22;5111310;28;20028;-58
2023/12/02 03:37:36;;;;;;;23.57;13.63;;;;;;;-1.24;86.34;101003.69;5092703;28;20026;-58
2023/12/02 03:40:02;;;;;;;25.93;14.00;;;;;;;-1.22;86.31;101007.13;5111107;28;20047;-58
2023/12/02 03:42:27;;;;;;;28.57;15.27;;;;;;;-1.26;85.81;100991.56;5111683;28;20112;-58
2023/12/02 03:44:52;;;;;;;23.37;13.30;;;;;;;-1.16;85.40;100999.22;5093956;28;20027;-58
2023/12/02 03:47:18;;;;;;;25.40;13.90;;;;;;;-1.19;85.59;100994.06;5111279;28;20028;-58
2023/12/02 03:49:43;;;;;;;23.77;13.57;;;;;;;-1.16;85.33;101001.84;5113823;28;20020;-58
2023/12/02 03:52:11;;;;;;;26.50;13.07;;;;;;;-1.19;85.69;100998.41;5082437;28;20028;-58
2023/12/02 03:54:36;;;;;;;25.03;13.60;;;;;;;-1.15;84.80;101007.91;5115135;28;20471;-58
2023/12/02 03:57:02;;;;;;;24.57;14.93;;;;;;;-1.18;85.84;101013.19;5115233;28;20107;-58
2023/12/02 03:59:29;;;;;;;24.13;12.50;;;;;;;-1.22;85.62;100996.69;5114387;28;20036;-58
2023/12/02 04:01:56;;;;;;;25.17;13.97;;;;;;;-1.19;85.80;101014.06;5098183;28;20052;-58
2023/12/02 04:04:21;;;;;;;25.17;13.63;;;;;;;-1.13;85.84;101019.22;5096712;28;20072;-58
2023/12/02 04:06:46;;;;;;;27.77;14.70;;;;;;;-1.13;85.72;101029.66;5096662;28;20028;-58
2023/12/02 04:09:12;;;;;;;24.00;13.77;;;;;;;-1.09;85.97;101013.06;5076375;28;20475;-58
2023/12/02 04:11:37;;;;;;;26.50;14.00;;;;;;;-1.13;85.20;101032.25;5113500;28;20028;-58
2023/12/02 04:14:03;;;;;;;25.03;14.17;;;;;;;-1.12;85.51;101035.72;5114995;28;20027;-58
2023/12/02 04:16:28;;;;;;;29.80;15.53;;;;;;;-1.13;85.84;101019.22;5110882;28;20125;-58
2023/12/02 04:18:53;;;;;;;25.27;13.23;;;;;;;-1.14;85.06;101043.59;5104547;28;20398;-58
2023/12/02 04:21:19;;;;;;;27.73;14.10;;;;;;;-1.14;84.67;101035.75;5114370;28;20461;-58
2023/12/02 04:23:44;;;;;;;27.00;13.83;;;;;;;-1.15;85.47;101039.22;5114649;28;20075;-58
2023/12/02 04:26:10;;;;;;;24.87;13.80;;;;;;;-1.20;85.05;101033.22;5114082;28;20023;-58
2023/12/02 04:28:38;;;;;;;24.73;14.17;;;;;;;-1.14;84.84;101048.81;5111430;28;20047;-58
2023/12/02 04:31:03;;;;;;;24.50;14.47;;;;;;;-1.18;84.87;101041.88;5114246;28;20051;-58
2023/12/02 04:33:28;;;;;;;25.20;13.43;;;;;;;-1.19;85.27;101048.84;5096252;28;20020;-58
2023/12/02 04:35:54;;;;;;;26.27;14.57;;;;;;;-1.19;84.96;101061.91;5097441;28;20379;-58
2023/12/02 04:38:22;;;;;;;27.43;15.03;;;;;;;-1.19;85.30;101050.59;5114192;28;20030;-58
2023/12/02 04:40:48;;;;;;;27.73;13.57;;;;;;;-1.23;84.42;101057.59;5096008;28;20802;-58
2023/12/02 04:43:13;;;;;;;24.97;13.87;;;;;;;-1.20;85.25;101057.56;5095925;28;20028;-58
2023/12/02 04:45:39;;;;;;;29.33;15.03;;;;;;;-1.19;84.83;101042.78;5113814;28;20039;-58
2023/12/02 04:48:07;;;;;;;29.77;14.70;;;;;;;-1.17;84.75;101048.84;5113744;28;20027;-58
2023/12/02 04:50:32;;;;;;;24.73;14.33;;;;;;;-1.15;84.58;101049.66;5114128;28;20041;-58
2023/12/02 04:52:58;;;;;;;28.20;13.87;;;;;;;-1.18;84.69;101049.72;5114113;28;20471;-58
2023/12/02 04:55:23;;;;;;;23.23;13.07;;;;;;;-1.22;84.85;101054.09;5095886;28;20026;-58
2023/12/02 04:57:48;;;;;;;22.77;13.73;;;;;;;-1.32;84.59;101035.94;5113281;28;20024;-57
2023/12/02 05:00:14;;;;;;;28.97;15.40;;;;;;;-1.31;84.34;101053.34;5112446;28;20437;-58
2023/12/02 05:02:43;;;;;;;28.77;14.40;;;;;;;-1.30;85.50;101058.53;5113501;28;20507;-58
2023/12/02 05:05:12;;;;;;;27.63;14.30;;;;;;;-1.29;85.09;101062.03;5095321;28;20028;-58
2023/12/02 05:07:38;;;;;;;28.03;14.37;;;;;;;-1.33;85.34;101060.31;5095658;28;20114;-58
2023/12/02 05:10:04;;;;;;;27.43;14.37;;;;;;;-1.28;85.80;101067.22;5113401;28;20110;-58
2023/12/02 05:12:30;;;;;;;23.93;14.70;;;;;;;-1.29;85.18;101067.25;5113385;28;20028;-58
2023/12/02 05:14:56;;;;;;;25.40;15.10;;;;;;;-1.35;85.62;101054.25;5113491;28;20031;-58
2023/12/02 05:17:21;;;;;;;25.43;13.87;;;;;;;-1.32;85.55;101075.97;5097438;28;20023;-58
2023/12/02 05:19:49;;;;;;;26.60;13.97;;;;;;;-1.35;85.86;101068.19;5113344;28;20042;-58
2023/12/02 05:22:14;;;;;;;25.20;14.50;;;;;;;-1.30;85.81;101084.63;5113039;28;20104;-58
2023/12/02 05:24:41;;;;;;;29.10;16.07;;;;;;;-1.26;86.15;101093.31;5097719;28;20122;-58
2023/12/02 05:27:06;;;;;;;26.60;14.93;;;;;;;-1.24;86.39;101086.31;5113774;28;20479;-58
2023/12/02 05:29:31;;;;;;;24.97;13.60;;;;;;;-1.21;85.70;101081.06;5112463;28;20077;-58
2023/12/02 05:31:57;;;;;;;28.50;15.97;;;;;;;-1.20;86.13;101091.50;5113192;28;20452;-58
2023/12/02 05:34:22;;;;;;;25.33;14.40;;;;;;;-1.22;85.38;101093.25;5094227;28;20031;-58
2023/12/02 05:36:47;;;;;;;25.97;15.03;;;;;;;-1.26;86.28;101093.31;5113059;28;20038;-58
2023/12/02 05:39:14;;;;;;;22.90;13.20;;;;;;;-1.27;85.76;101087.19;5112821;28;20122;-58
2023/12/02 05:41:45;;;;;;;31.27;15.50;;;;;;;-1.31;85.61;101082.91;5113220;28;20073;-58
2023/12/02 05:44:10;;;;;;;27.13;14.77;;;;;;;-1.34;85.52;101080.34;5094495;28;20498;-58
2023/12/02 05:46:37;;;;;;;22.73;13.67;;;;;;;-1.37;86.07;101067.31;5094052;28;20027;-58
2023/12/02 05:49:02;;;;;;;28.03;14.83;;;;;;;-1.33;86.24;101076.84;5112956;28;20383;-58
2023/12/02 05:51:28;;;;;;;29.40;15.33;;;;;;;-1.28;86.36;101076.78;5112782;28;20028;-58
2023/12/02 05:53:53;;;;;;;29.67;14.70;;;;;;;-1.30;86.04;101076.78;5094732;28;20019;-58
2023/12/02 05:56:21;;;;;;;26.97;14.23;;;;;;;-1.34;85.52;101069.03;5112674;28;20023;-58
2023/12/02 05:58:50;;;;;;;26.30;15.03;;;;;;;-1.40;86.32;101072.56;5095010;28;20110;-58
2023/12/02 06:01:22;;;;;;;25.17;14.13;;;;;;;-1.41;86.51;101084.75;5093937;28;20137;-58
2023/12/02 06:03:48;;;;;;;23.10;14.40;;;;;;;-1.39;86.22;101101.25;5094526;28;20130;-58
2023/12/02 06:06:14;;;;;;;24.90;14.07;;;;;;;-1.46;86.75;101094.38;5094258;28;20467;-58
2023/12/02 06:08:41;;;;;;;28.03;15.27;;;;;;;-1.38;86.75;101110.81;5094163;28;20016;-58
2023/12/02 06:11:09;;;;;;;26.93;13.90;;;;;;;-1.38;86.83;101103.00;5111694;28;20019;-58
2023/12/02 06:13:35;;;;;;;26.33;14.33;;;;;;;-1.37;86.73;101104.69;5112517;28;20031;-58
2023/12/02 06:16:02;;;;;;;28.83;15.50;;;;;;;-1.34;87.31;101109.03;5094668;28;20391;-58
2023/12/02 06:18:28;;;;;;;30.07;15.07;;;;;;;-1.35;86.54;101117.75;5112146;28;20039;-58
2023/12/02 06:20:53;;;;;;;25.67;14.10;;;;;;;-1.46;87.34;101096.13;5094262;28;20533;-58
2023/12/02 06:23:19;;;;;;;28.03;15.53;;;;;;;-1.41;87.18;101112.59;5094248;28;20065;-58
2023/12/02 06:25:44;;;;;;;26.30;14.70;;;;;;;-1.40;86.89;101114.31;5112098;28;20476;-58
2023/12/02 06:28:12;;;;;;;30.57;14.60;;;;;;;-1.44;87.77;101103.03;5112305;28;20024;-58
2023/12/02 06:30:37;;;;;;;25.60;14.03;;;;;;;-1.40;87.42;101122.13;5092628;28;20055;-58
2023/12/02 06:33:03;;;;;;;28.80;14.63;;;;;;;-1.43;86.89;101120.41;5111458;28;20054;-58
2023/12/02 06:35:28;;;;;;;33.03;14.57;;;;;;;-1.43;87.24;101124.78;5111335;28;20035;-57
2023/12/02 06:37:54;;;;;;;23.60;14.37;;;;;;;-1.49;87.73;101123.09;5093365;28;20076;-58
2023/12/02 06:40:19;;;;;;;26.27;13.90;;;;;;;-1.50;87.64;101116.16;5111521;28;20482;-58
2023/12/02 06:42:44;;;;;;;26.77;13.70;;;;;;;-1.48;87.41;101121.34;5093652;28;20034;-58
2023/12/02 06:45:12;;;;;;;25.83;14.53;;;;;;;-1.46;87.58;101130.03;5092381;28;20031;-58
2023/12/02 06:47:41;;;;;;;25.10;14.83;;;;;;;-1.46;87.96;101135.25;5111609;28;20114;-58
2023/12/02 06:50:07;;;;;;;27.33;13.97;;;;;;;-1.47;88.39;101142.19;5094771;28;20096;-58
2023/12/02 06:52:32;;;;;;;31.33;15.53;;;;;;;-1.49;87.67;101135.28;5112389;28;20015;-58
2023/12/02 06:54:58;;;;;;;26.37;14.60;;;;;;;-1.49;88.69;101143.09;5093623;28;20026;-58
2023/12/02 06:57:24;;;;;;;27.80;13.50;;;;;;;-1.50;88.57;101147.44;5090432;28;20499;-58
2023/12/02 06:59:51;;;;;;;27.77;14.10;;;;;;;-1.50;88.14;101152.66;5110942;28;20023;-58
2023/12/02 07:02:16;;;;;;;26.53;14.20;;;;;;;-1.51;87.73;101150.06;5094694;28;20063;-58
2023/12/02 07:04:42;;;;;;;25.43;14.60;;;;;;;-1.56;88.66;101149.22;5093490;28;20020;-58
2023/12/02 07:07:12;;;;;;;28.00;15.77;;;;;;;-1.50;88.19;101157.88;5095702;28;20087;-58
2023/12/02 07:09:37;;;;;;;29.90;16.20;;;;;;;-1.56;89.13;101167.47;5112069;28;20023;-58
2023/12/02 07:12:03;;;;;;;28.50;13.63;;;;;;;-1.57;89.19;101170.97;5112277;28;20472;-58
2023/12/02 07:14:28;;;;;;;30.13;15.47;;;;;;;-1.57;89.49;101178.78;5107478;28;20509;-58
2023/12/02 07:16:54;;;;;;;31.77;15.70;;;;;;;-1.57;89.49;101176.19;5112179;28;20027;-58
2023/12/02 07:19:21;;;;;;;26.53;14.23;;;;;;;-1.60;89.36;101172.72;5111956;28;20035;-58
2023/12/02 07:21:47;;;;;;;23.13;14.33;;;;;;;-1.60;88.82;101177.06;5112111;28;20054;-58
2023/12/02 07:24:13;;;;;;;29.43;14.63;;;;;;;-1.60;89.40;101177.06;5115873;28;20068;-58
2023/12/02 07:26:39;;;;;;;28.67;15.33;;;;;;;-1.59;89.72;101178.78;5081380;28;20026;-58
2023/12/02 07:29:04;;;;;;;24.97;14.30;;;;;;;-1.61;89.43;101181.44;5115707;28;20031;-58
2023/12/02 07:31:32;;;;;;;29.10;14.13;;;;;;;-1.59;89.91;101194.44;5115341;28;20028;-58
2023/12/02 07:33:57;;;;;;;25.67;15.07;;;;;;;-1.57;89.84;101189.22;5116177;28;20034;-58
2023/12/02 07:36:23;;;;;;;26.17;15.00;;;;;;;-1.55;90.25;101190.09;5115512;28;20023;-58
2023/12/02 07:38:48;;;;;;;31.57;15.63;;;;;;;-1.52;90.58;101193.53;5097668;28;20480;-58
2023/12/02 07:41:13;;;;;;;25.40;13.77;;;;;;;-1.50;89.68;101188.28;5097406;28;20464;-58
2023/12/02 07:43:39;;;;;;;19.83;11.53;;;;;;;-1.53;89.56;101188.31;5115410;28;20073;-58
2023/12/02 07:46:05;;;;;;;25.47;13.80;;;;;;;-1.66;89.96;101172.75;5114639;28;20027;-57
2023/12/02 07:48:30;;;;;;;22.70;13.07;;;;;;;-1.63;89.04;101182.31;5101273;28;20440;-58
2023/12/02 07:50:55;;;;;;;27.03;14.53;;;;;;;-1.68;89.20;101184.06;5097445;28;20030;-58
2023/12/02 07:53:21;;;;;;;27.03;13.83;;;;;;;-1.66;89.42;101184.94;5115662;28;20102;-58
2023/12/02 07:55:46;;;;;;;23.63;14.30;;;;;;;-1.73;89.49;101191.09;5097223;28;20102;-58
2023/12/02 07:58:12;;;;;;;25.03;14.43;;;;;;;-1.77;89.87;101192.81;5114968;28;20058;-58
2023/12/02 08:00:39;;;;;;;33.23;16.20;;;;;;;-1.76;90.60;101204.16;5114869;28;20024;-59
2023/12/02 08:03:07;;;;;;;27.73;15.53;;;;;;;-1.74;90.68;101202.38;5115216;28;20040;-58
2023/12/02 08:05:32;;;;;;;30.87;14.40;;;;;;;-1.76;90.50;101212.81;5115518;28;20024;-58
2023/12/02 08:08:00;;;;;;;28.13;15.97;;;;;;;-1.73;90.75;101222.38;5111638;28;20022;-58
2023/12/02 08:10:28;;;;;;;28.93;16.13;;;;;;;-1.71;91.20;101212.78;5115157;28;20019;-58
2023/12/02 08:12:54;;;;;;;27.00;16.40;;;;;;;-1.70;91.92;101201.50;5113961;28;20031;-58
2023/12/02 08:15:21;;;;;;;26.10;13.67;;;;;;;-1.58;90.77;101219.66;5113910;27;20452;-58
2023/12/02 08:17:47;;;;;;;27.97;16.17;;;;;;;-1.59;90.61;101215.28;5115333;27;20038;-58
2023/12/02 08:20:13;;;;;;;27.50;15.27;;;;;;;-1.59;90.50;101225.72;5114532;28;20047;-58
2023/12/02 08:22:38;;;;;;;29.87;15.13;;;;;;;-1.58;90.36;101234.44;5107523;28;20040;-58
2023/12/02 08:25:08;;;;;;;25.80;15.17;;;;;;;-1.57;90.36;101242.25;5114856;28;20098;-58
2023/12/02 08:27:33;;;;;;;29.38;15.18;;;;;;;-1.56;90.81;101245.72;5115104;28;20023;-58
2023/12/02 08:29:58;;;;;;;27.93;14.63;;;;;;;-1.56;90.21;101245.72;5113995;28;20380;-58
2023/12/02 08:32:26;;;;;;;27.70;16.27;;;;;;;-1.60;91.18;101240.50;5110824;28;20055;-58
2023/12/02 08:34:54;;;;;;;30.77;14.87;;;;;;;-1.64;90.64;101244.03;5112578;28;20547;-58
2023/12/02 08:37:22;;;;;;;28.73;15.60;;;;;;;-1.59;91.23;101262.25;5114902;28;20076;-58
2023/12/02 08:39:50;;;;;;;29.30;14.77;;;;;;;-1.61;91.00;101253.59;5114490;28;20019;-58
2023/12/02 08:42:15;;;;;;;27.00;15.53;;;;;;;-1.64;91.00;101256.22;5114597;28;20019;-58
2023/12/02 08:44:41;;;;;;;31.53;15.43;;;;;;;-1.57;90.97;101267.47;5113627;28;20023;-58
2023/12/02 08:47:07;;;;;;;26.60;15.30;;;;;;;-1.58;91.19;101277.03;5096184;28;20102;-58
2023/12/02 08:49:32;;;;;;;33.10;16.53;;;;;;;-1.57;91.06;101283.09;5114496;28;20196;-58
2023/12/02 08:51:58;;;;;;;33.57;15.77;;;;;;;-1.56;91.51;101277.00;5114721;28;20023;-58
2023/12/02 08:54:24;;;;;;;30.43;16.00;;;;;;;-1.57;91.26;101276.16;5096892;28;20015;-58
2023/12/02 08:56:49;;;;;;;30.87;16.57;;;;;;;-1.49;91.86;101274.34;5096254;28;20043;-58
2023/12/02 08:59:15;;;;;;;34.50;15.27;;;;;;;-1.46;91.27;101279.56;5114234;28;20035;-58
2023/12/02 09:01:40;;;;;;;27.70;14.60;;;;;;;-1.47;91.89;101277.84;5113971;28;20058;-58
2023/12/02 09:04:07;;;;;;;31.53;15.73;;;;;;;-1.49;91.35;101281.31;5113880;28;20077;-58
2023/12/02 09:06:35;;;;;;;32.40;15.07;;;;;;;-1.51;91.46;101289.13;5095428;28;20031;-58
2023/12/02 09:09:00;;;;;;;26.80;15.50;;;;;;;-1.50;91.15;101280.47;5095697;28;20498;-58
2023/12/02 09:11:26;;;;;;;28.40;14.87;;;;;;;-1.56;91.55;101274.41;5114053;28;20023;-58
2023/12/02 09:13:53;;;;;;;31.33;15.93;;;;;;;-1.50;91.62;101282.19;5095275;28;20070;-58
2023/12/02 09:16:28;;;;;;;31.67;14.73;;;;;;;-1.54;91.38;101275.25;5109452;28;20046;-58
2023/12/02 09:18:54;;;;;;;29.07;15.83;;;;;;;-1.45;90.85;101288.25;5114325;28;20035;-58
2023/12/02 09:21:42;;;;;;;31.87;15.77;;;;;;;-1.40;91.45;101297.78;5113650;28;20437;-58
2023/12/02 09:24:33;;;;;;;27.60;13.83;;;;;;;-1.31;91.63;101295.97;5113403;28;20031;-58
2023/12/02 09:26:58;;;;;;;32.43;17.03;;;;;;;-1.28;90.40;101291.59;5109596;28;20506;-58
2023/12/02 09:29:33;;;;;;;34.43;16.80;;;;;;;-1.26;90.45;101289.84;5112071;28;20032;-58
2023/12/02 09:32:07;;;;;;;32.47;17.90;;;;;;;-1.26;90.48;101289.84;5111659;28;20093;-58
2023/12/02 09:34:41;;;;;;;34.77;16.77;;;;;;;-1.20;90.06;101292.41;5112893;28;20038;-58
2023/12/02 09:37:40;;;;;;;30.13;17.13;;;;;;;-1.15;90.59;101293.25;5110737;28;20414;-58
2023/12/02 09:40:34;;;;;;;32.90;15.30;;;;;;;-1.05;90.45;101295.78;5108618;28;20035;-58
2023/12/02 09:43:38;;;;;;;33.17;16.60;;;;;;;-0.93;90.11;101306.13;5112295;28;20035;-58
2023/12/02 09:46:09;;;;;;;32.63;16.53;;;;;;;-0.81;90.45;101295.56;4992152;28;20243;-58
2023/12/02 09:48:55;;;;;;;32.83;16.07;;;;;;;-0.60;89.50;101309.31;5091487;28;20031;-58
2023/12/02 09:51:37;;;;;;;32.90;17.40;;;;;;;-0.50;89.36;101306.59;5111631;28;20031;-58
2023/12/02 09:54:08;;;;;;;29.30;16.03;;;;;;;-0.40;88.21;101311.72;5111409;28;20183;-58
2023/12/02 09:56:39;;;;;;;34.17;17.57;;;;;;;-0.39;88.78;101303.88;5112559;28;20023;-58
2023/12/02 09:59:21;;;;;;;25.13;14.97;;;;;;;-0.38;87.99;101309.94;5102241;28;20114;-58
2023/12/02 10:01:52;;;;;;;26.93;15.30;;;;;;;-0.39;87.25;101314.31;5111438;28;20484;-58
2023/12/02 10:04:44;;;;;;;35.47;19.03;;;;;;;-0.36;87.66;101314.28;5110039;28;20024;-58
2023/12/02 10:07:14;;;;;;;30.93;14.67;;;;;;;-0.28;86.83;101304.63;5095023;28;20027;-59
2023/12/02 10:09:48;;;;;;;31.87;15.47;;;;;;;-0.30;87.01;101306.38;5109637;28;20396;-58
2023/12/02 10:12:22;;;;;;;34.70;17.33;;;;;;;-0.29;86.98;101302.91;5096430;28;20028;-58
2023/12/02 10:14:58;;;;;;;29.30;15.40;;;;;;;-0.05;85.99;101300.88;5111369;28;20519;-58
2023/12/02 10:17:26;;;;;;;27.70;16.87;;;;;;;0.09;85.81;101300.69;5110208;28;20022;-57
2023/12/02 10:19:55;;;;;;;31.37;15.50;;;;;;;0.29;85.26;101292.59;5111876;28;20031;-58
2023/12/02 10:22:26;;;;;;;30.45;15.90;;;;;;;0.59;84.61;101305.25;5111606;28;20020;-58
2023/12/02 10:25:06;;;;;;;37.50;16.53;;;;;;;0.97;83.99;101305.53;5109361;28;20118;-58
2023/12/02 10:27:39;;;;;;;30.35;17.13;;;;;;;1.12;81.95;101300.94;5107606;28;20080;-58
2023/12/02 10:30:10;;;;;;;29.73;16.20;;;;;;;1.36;81.68;101306.66;5092670;28;20027;-58
2023/12/02 10:32:35;;;;;;;30.93;15.73;;;;;;;1.65;81.49;101306.13;5094425;28;20452;-58
2023/12/02 10:35:21;;;;;;;30.83;16.70;;;;;;;1.98;80.18;101312.47;5111360;28;20054;-58
2023/12/02 10:38:24;;;;;;;28.37;15.80;;;;;;;2.27;79.50;101301.34;5100914;28;20039;-58
2023/12/02 10:41:57;;;;;;;26.27;14.98;;;;;;;2.69;78.73;101318.81;5105821;28;20031;-58
2023/12/02 10:44:23;;;;;;;31.65;15.27;;;;;;;3.18;75.67;101315.88;5079174;28;20368;-58
2023/12/02 10:46:50;;;;;;;30.80;15.27;;;;;;;3.55;73.94;101314.94;5111703;28;20032;-58
2023/12/02 10:49:16;;;;;;;22.60;13.73;;;;;;;3.92;71.20;101321.84;5094086;28;20026;-59
2023/12/02 10:51:42;;;;;;;27.98;16.67;;;;;;;4.19;68.55;101330.72;5111915;28;20027;-58
2023/12/02 10:54:17;;;;;;;27.77;15.18;;;;;;;4.30;69.21;101328.63;5112259;28;20024;-58
2023/12/02 10:56:48;;;;;;;28.50;16.20;;;;;;;3.94;67.88;101332.28;5111054;28;20093;-58
2023/12/02 10:59:19;;;;;;;24.52;15.82;;;;;;;3.49;69.11;101330.00;5110948;28;20024;-58
2023/12/02 11:01:47;;;;;;;26.58;16.40;;;;;;;3.06;70.55;101325.81;5109202;28;20074;-57
2023/12/02 11:04:34;;;;;;;28.35;16.77;;;;;;;2.61;72.50;101299.75;5110466;28;20494;-58
2023/12/02 11:07:07;;;;;;;34.20;16.83;;;;;;;2.37;72.96;101323.00;5102708;28;20020;-58
2023/12/02 11:09:51;;;;;;;31.60;17.35;;;;;;;1.99;73.48;101327.28;5097447;28;20019;-58
2023/12/02 11:12:28;;;;;;;31.77;17.23;;;;;;;1.59;75.67;101325.44;5109491;28;20032;-58